sensor_id;sensor_type;location;lat;lon;timestamp;temperature;humidity
18506;DHT22;9382;53.242;10.438;2022-08-05T00:01:13;19.60;99.90
18506;DHT22;9382;53.242;10.438;2022-08-05T00:03:40;19.50;99.90
18506;DHT22;9382;53.242;10.438;2022-08-05T00:06:09;19.60;99.90
18506;DHT22;9382;53.242;10.438;2022-08-05T00:08:37;19.60;99.90
18506;DHT22;9382;53.242;10.438;2022-08-05T00:11:06;19.60;99.90
18506;DHT22;9382;53.242;10.438;2022-08-05T00:13:35;19.70;99.90
18506;DHT22;9382;53.242;10.438;2022-08-05T00:16:02;19.60;99.90
18506;DHT22;9382;53.242;10.438;2022-08-05T00:18:29;19.70;99.90
18506;DHT22;9382;53.242;10.438;2022-08-05T00:20:56;19.60;99.90
18506;DHT22;9382;53.242;10.438;2022-08-05T00:23:24;19.60;99.90
18506;DHT22;9382;53.242;10.438;2022-08-05T00:25:51;19.70;99.90
18506;DHT22;9382;53.242;10.438;2022-08-05T00:28:18;19.60;99.90
18506;DHT22;9382;53.242;10.438;2022-08-05T00:30:45;19.70;99.90
18506;DHT22;9382;53.242;10.438;2022-08-05T00:33:12;19.70;99.90
18506;DHT22;9382;53.242;10.438;2022-08-05T00:35:38;19.70;99.90
18506;DHT22;9382;53.242;10.438;2022-08-05T00:38:05;19.70;99.90
18506;DHT22;9382;53.242;10.438;2022-08-05T00:40:33;19.70;99.90
18506;DHT22;9382;53.242;10.438;2022-08-05T00:43:10;19.70;99.90
18506;DHT22;9382;53.242;10.438;2022-08-05T00:45:37;19.70;99.90
18506;DHT22;9382;53.242;10.438;2022-08-05T00:48:04;19.80;99.90
18506;DHT22;9382;53.242;10.438;2022-08-05T00:50:31;19.80;99.90
18506;DHT22;9382;53.242;10.438;2022-08-05T00:52:58;19.80;99.90
18506;DHT22;9382;53.242;10.438;2022-08-05T00:55:25;19.80;99.90
18506;DHT22;9382;53.242;10.438;2022-08-05T00:57:53;19.80;99.90
18506;DHT22;9382;53.242;10.438;2022-08-05T01:00:19;19.80;99.90
18506;DHT22;9382;53.242;10.438;2022-08-05T01:02:46;19.70;99.90
18506;DHT22;9382;53.242;10.438;2022-08-05T01:05:13;19.70;99.90
18506;DHT22;9382;53.242;10.438;2022-08-05T01:07:39;19.60;99.90
18506;DHT22;9382;53.242;10.438;2022-08-05T01:10:09;19.60;99.90
18506;DHT22;9382;53.242;10.438;2022-08-05T01:12:38;19.60;99.90
18506;DHT22;9382;53.242;10.438;2022-08-05T01:15:11;19.60;99.90
18506;DHT22;9382;53.242;10.438;2022-08-05T01:17:44;19.60;99.90
18506;DHT22;9382;53.242;10.438;2022-08-05T01:20:18;19.60;99.90
18506;DHT22;9382;53.242;10.438;2022-08-05T01:23:09;19.60;99.90
18506;DHT22;9382;53.242;10.438;2022-08-05T01:25:46;19.50;99.90
18506;DHT22;9382;53.242;10.438;2022-08-05T01:28:22;19.50;99.90
18506;DHT22;9382;53.242;10.438;2022-08-05T01:30:52;19.40;99.90
18506;DHT22;9382;53.242;10.438;2022-08-05T01:33:23;19.40;99.90
18506;DHT22;9382;53.242;10.438;2022-08-05T01:35:54;19.30;99.90
18506;DHT22;9382;53.242;10.438;2022-08-05T01:38:24;19.30;99.90
18506;DHT22;9382;53.242;10.438;2022-08-05T01:40:53;19.20;99.90
18506;DHT22;9382;53.242;10.438;2022-08-05T01:43:22;19.20;99.90
18506;DHT22;9382;53.242;10.438;2022-08-05T01:45:50;19.10;99.90
18506;DHT22;9382;53.242;10.438;2022-08-05T01:48:18;19.10;99.90
18506;DHT22;9382;53.242;10.438;2022-08-05T01:50:46;19.00;99.90
18506;DHT22;9382;53.242;10.438;2022-08-05T01:53:13;19.00;99.90
18506;DHT22;9382;53.242;10.438;2022-08-05T01:55:43;19.00;99.90
18506;DHT22;9382;53.242;10.438;2022-08-05T01:58:11;18.90;99.90
18506;DHT22;9382;53.242;10.438;2022-08-05T02:00:42;18.90;99.90
18506;DHT22;9382;53.242;10.438;2022-08-05T02:03:14;18.90;99.90
18506;DHT22;9382;53.242;10.438;2022-08-05T02:05:42;18.80;99.90
18506;DHT22;9382;53.242;10.438;2022-08-05T02:08:10;18.80;99.90
18506;DHT22;9382;53.242;10.438;2022-08-05T02:10:42;18.80;99.90
18506;DHT22;9382;53.242;10.438;2022-08-05T02:13:13;18.70;99.90
18506;DHT22;9382;53.242;10.438;2022-08-05T02:15:44;18.70;99.90
18506;DHT22;9382;53.242;10.438;2022-08-05T02:18:15;18.70;99.90
18506;DHT22;9382;53.242;10.438;2022-08-05T02:20:47;18.60;99.90
18506;DHT22;9382;53.242;10.438;2022-08-05T02:23:19;18.50;99.90
18506;DHT22;9382;53.242;10.438;2022-08-05T02:25:48;18.50;99.90
18506;DHT22;9382;53.242;10.438;2022-08-05T02:28:22;18.50;99.90
18506;DHT22;9382;53.242;10.438;2022-08-05T02:30:56;18.50;99.90
18506;DHT22;9382;53.242;10.438;2022-08-05T02:33:24;18.50;99.90
18506;DHT22;9382;53.242;10.438;2022-08-05T02:35:54;18.50;99.90
18506;DHT22;9382;53.242;10.438;2022-08-05T02:38:22;18.50;99.90
18506;DHT22;9382;53.242;10.438;2022-08-05T02:40:50;18.50;99.90
18506;DHT22;9382;53.242;10.438;2022-08-05T02:43:19;18.50;99.90
18506;DHT22;9382;53.242;10.438;2022-08-05T02:45:48;18.50;99.90
18506;DHT22;9382;53.242;10.438;2022-08-05T02:48:17;18.50;99.90
18506;DHT22;9382;53.242;10.438;2022-08-05T02:50:46;18.50;99.90
18506;DHT22;9382;53.242;10.438;2022-08-05T02:53:16;18.50;99.90
18506;DHT22;9382;53.242;10.438;2022-08-05T02:55:45;18.60;99.90
18506;DHT22;9382;53.242;10.438;2022-08-05T02:58:13;18.60;99.90
18506;DHT22;9382;53.242;10.438;2022-08-05T03:00:41;18.60;99.90
18506;DHT22;9382;53.242;10.438;2022-08-05T03:03:13;18.50;99.90
18506;DHT22;9382;53.242;10.438;2022-08-05T03:05:42;18.50;99.90
18506;DHT22;9382;53.242;10.438;2022-08-05T03:08:09;18.50;99.90
18506;DHT22;9382;53.242;10.438;2022-08-05T03:10:36;18.50;99.90
18506;DHT22;9382;53.242;10.438;2022-08-05T03:13:12;18.60;99.90
18506;DHT22;9382;53.242;10.438;2022-08-05T03:15:41;18.60;99.90
18506;DHT22;9382;53.242;10.438;2022-08-05T03:18:08;18.60;99.90
18506;DHT22;9382;53.242;10.438;2022-08-05T03:20:35;18.60;99.90
18506;DHT22;9382;53.242;10.438;2022-08-05T03:23:04;18.60;99.90
18506;DHT22;9382;53.242;10.438;2022-08-05T03:25:31;18.50;99.90
18506;DHT22;9382;53.242;10.438;2022-08-05T03:27:59;18.40;99.90
18506;DHT22;9382;53.242;10.438;2022-08-05T03:30:27;18.30;99.90
18506;DHT22;9382;53.242;10.438;2022-08-05T03:32:54;18.30;99.90
18506;DHT22;9382;53.242;10.438;2022-08-05T03:35:21;18.20;99.90
18506;DHT22;9382;53.242;10.438;2022-08-05T03:37:48;18.20;99.90
18506;DHT22;9382;53.242;10.438;2022-08-05T03:40:16;18.20;99.90
18506;DHT22;9382;53.242;10.438;2022-08-05T03:42:42;18.20;99.90
18506;DHT22;9382;53.242;10.438;2022-08-05T03:45:09;18.20;99.90
18506;DHT22;9382;53.242;10.438;2022-08-05T03:47:36;18.20;99.90
18506;DHT22;9382;53.242;10.438;2022-08-05T03:50:03;18.20;99.90
18506;DHT22;9382;53.242;10.438;2022-08-05T03:52:34;18.20;99.90
18506;DHT22;9382;53.242;10.438;2022-08-05T03:55:07;18.20;99.90
18506;DHT22;9382;53.242;10.438;2022-08-05T03:57:38;18.20;99.90
18506;DHT22;9382;53.242;10.438;2022-08-05T04:00:08;18.20;99.90
18506;DHT22;9382;53.242;10.438;2022-08-05T04:02:36;18.30;99.90
18506;DHT22;9382;53.242;10.438;2022-08-05T04:05:06;18.30;99.90
18506;DHT22;9382;53.242;10.438;2022-08-05T04:07:33;18.20;99.90
18506;DHT22;9382;53.242;10.438;2022-08-05T04:10:01;18.30;99.90
18506;DHT22;9382;53.242;10.438;2022-08-05T04:12:28;18.30;99.90
18506;DHT22;9382;53.242;10.438;2022-08-05T04:14:57;18.30;99.90
18506;DHT22;9382;53.242;10.438;2022-08-05T04:17:24;18.30;99.90
18506;DHT22;9382;53.242;10.438;2022-08-05T04:19:51;18.30;99.90
18506;DHT22;9382;53.242;10.438;2022-08-05T04:22:18;18.20;99.90
18506;DHT22;9382;53.242;10.438;2022-08-05T04:24:45;18.10;99.90
18506;DHT22;9382;53.242;10.438;2022-08-05T04:27:13;18.10;99.90
18506;DHT22;9382;53.242;10.438;2022-08-05T04:29:39;18.10;99.90
18506;DHT22;9382;53.242;10.438;2022-08-05T04:32:08;18.20;99.90
18506;DHT22;9382;53.242;10.438;2022-08-05T04:34:35;18.20;99.90
18506;DHT22;9382;53.242;10.438;2022-08-05T04:37:02;18.20;99.90
18506;DHT22;9382;53.242;10.438;2022-08-05T04:39:30;18.20;99.90
18506;DHT22;9382;53.242;10.438;2022-08-05T04:41:57;18.30;99.90
18506;DHT22;9382;53.242;10.438;2022-08-05T04:44:24;18.20;99.90
18506;DHT22;9382;53.242;10.438;2022-08-05T04:46:51;18.20;99.90
18506;DHT22;9382;53.242;10.438;2022-08-05T04:49:19;18.20;99.90
18506;DHT22;9382;53.242;10.438;2022-08-05T04:51:46;18.20;99.90
18506;DHT22;9382;53.242;10.438;2022-08-05T04:54:12;18.10;99.90
18506;DHT22;9382;53.242;10.438;2022-08-05T04:56:39;18.00;99.90
18506;DHT22;9382;53.242;10.438;2022-08-05T04:59:06;18.00;99.90
18506;DHT22;9382;53.242;10.438;2022-08-05T05:01:33;18.00;99.90
18506;DHT22;9382;53.242;10.438;2022-08-05T05:04:00;18.00;99.90
18506;DHT22;9382;53.242;10.438;2022-08-05T05:06:28;17.90;99.90
18506;DHT22;9382;53.242;10.438;2022-08-05T05:08:54;17.90;99.90
18506;DHT22;9382;53.242;10.438;2022-08-05T05:11:21;17.90;99.90
18506;DHT22;9382;53.242;10.438;2022-08-05T05:13:48;17.80;99.90
18506;DHT22;9382;53.242;10.438;2022-08-05T05:16:14;17.70;99.90
18506;DHT22;9382;53.242;10.438;2022-08-05T05:18:41;17.70;99.90
18506;DHT22;9382;53.242;10.438;2022-08-05T05:21:09;17.70;99.90
18506;DHT22;9382;53.242;10.438;2022-08-05T05:23:37;17.80;99.90
18506;DHT22;9382;53.242;10.438;2022-08-05T05:26:04;17.80;99.90
18506;DHT22;9382;53.242;10.438;2022-08-05T05:28:30;17.90;99.90
18506;DHT22;9382;53.242;10.438;2022-08-05T05:30:57;17.90;99.90
18506;DHT22;9382;53.242;10.438;2022-08-05T05:33:24;17.90;99.90
18506;DHT22;9382;53.242;10.438;2022-08-05T05:35:51;17.90;99.90
18506;DHT22;9382;53.242;10.438;2022-08-05T05:38:20;17.80;99.90
18506;DHT22;9382;53.242;10.438;2022-08-05T05:40:48;17.80;99.90
18506;DHT22;9382;53.242;10.438;2022-08-05T05:43:15;17.80;99.90
18506;DHT22;9382;53.242;10.438;2022-08-05T05:45:42;17.80;99.90
18506;DHT22;9382;53.242;10.438;2022-08-05T05:48:09;17.80;99.90
18506;DHT22;9382;53.242;10.438;2022-08-05T05:50:35;17.80;99.90
18506;DHT22;9382;53.242;10.438;2022-08-05T05:53:05;17.90;99.90
18506;DHT22;9382;53.242;10.438;2022-08-05T05:55:33;17.90;99.90
18506;DHT22;9382;53.242;10.438;2022-08-05T05:58:01;17.90;99.90
18506;DHT22;9382;53.242;10.438;2022-08-05T06:00:27;17.90;99.90
18506;DHT22;9382;53.242;10.438;2022-08-05T06:02:54;17.90;99.90
18506;DHT22;9382;53.242;10.438;2022-08-05T06:05:21;17.90;99.90
18506;DHT22;9382;53.242;10.438;2022-08-05T06:07:48;17.90;99.90
18506;DHT22;9382;53.242;10.438;2022-08-05T06:10:15;18.00;99.90
18506;DHT22;9382;53.242;10.438;2022-08-05T06:12:41;17.90;99.90
18506;DHT22;9382;53.242;10.438;2022-08-05T06:15:10;17.90;99.90
18506;DHT22;9382;53.242;10.438;2022-08-05T06:17:37;17.80;99.90
18506;DHT22;9382;53.242;10.438;2022-08-05T06:20:04;17.70;99.90
18506;DHT22;9382;53.242;10.438;2022-08-05T06:22:32;17.70;99.90
18506;DHT22;9382;53.242;10.438;2022-08-05T06:25:00;17.70;99.90
18506;DHT22;9382;53.242;10.438;2022-08-05T06:27:27;17.70;99.90
18506;DHT22;9382;53.242;10.438;2022-08-05T06:29:54;17.70;99.90
18506;DHT22;9382;53.242;10.438;2022-08-05T06:32:22;17.70;99.90
18506;DHT22;9382;53.242;10.438;2022-08-05T06:34:49;17.80;99.90
18506;DHT22;9382;53.242;10.438;2022-08-05T06:37:15;17.80;99.90
18506;DHT22;9382;53.242;10.438;2022-08-05T06:39:42;17.80;99.90
18506;DHT22;9382;53.242;10.438;2022-08-05T06:42:09;17.90;99.90
18506;DHT22;9382;53.242;10.438;2022-08-05T06:44:38;18.00;99.90
18506;DHT22;9382;53.242;10.438;2022-08-05T06:47:04;18.10;99.90
18506;DHT22;9382;53.242;10.438;2022-08-05T06:49:32;18.20;99.90
18506;DHT22;9382;53.242;10.438;2022-08-05T06:51:59;18.40;99.90
18506;DHT22;9382;53.242;10.438;2022-08-05T06:54:26;18.50;99.90
18506;DHT22;9382;53.242;10.438;2022-08-05T06:56:53;18.70;99.90
18506;DHT22;9382;53.242;10.438;2022-08-05T06:59:19;18.90;99.90
18506;DHT22;9382;53.242;10.438;2022-08-05T07:01:46;19.10;99.90
18506;DHT22;9382;53.242;10.438;2022-08-05T07:04:13;19.30;99.90
18506;DHT22;9382;53.242;10.438;2022-08-05T07:06:41;19.40;99.90
18506;DHT22;9382;53.242;10.438;2022-08-05T07:09:08;19.50;99.90
18506;DHT22;9382;53.242;10.438;2022-08-05T07:11:34;19.50;99.90
18506;DHT22;9382;53.242;10.438;2022-08-05T07:14:01;19.60;99.90
18506;DHT22;9382;53.242;10.438;2022-08-05T07:16:46;19.60;99.90
18506;DHT22;9382;53.242;10.438;2022-08-05T07:19:17;19.70;99.90
18506;DHT22;9382;53.242;10.438;2022-08-05T07:21:46;19.80;99.90
18506;DHT22;9382;53.242;10.438;2022-08-05T07:24:13;20.00;99.90
18506;DHT22;9382;53.242;10.438;2022-08-05T07:26:41;20.00;99.90
18506;DHT22;9382;53.242;10.438;2022-08-05T07:29:08;19.80;99.90
18506;DHT22;9382;53.242;10.438;2022-08-05T07:31:35;19.70;99.90
18506;DHT22;9382;53.242;10.438;2022-08-05T07:34:02;19.60;99.90
18506;DHT22;9382;53.242;10.438;2022-08-05T07:36:29;19.50;99.90
18506;DHT22;9382;53.242;10.438;2022-08-05T07:38:59;19.30;99.90
18506;DHT22;9382;53.242;10.438;2022-08-05T07:41:26;19.10;99.90
18506;DHT22;9382;53.242;10.438;2022-08-05T07:43:54;19.00;99.90
18506;DHT22;9382;53.242;10.438;2022-08-05T07:46:21;18.90;99.90
18506;DHT22;9382;53.242;10.438;2022-08-05T07:48:48;18.80;99.90
18506;DHT22;9382;53.242;10.438;2022-08-05T07:51:15;18.70;99.90
18506;DHT22;9382;53.242;10.438;2022-08-05T07:53:41;18.70;99.90
18506;DHT22;9382;53.242;10.438;2022-08-05T07:56:10;18.60;99.90
18506;DHT22;9382;53.242;10.438;2022-08-05T07:58:36;18.60;99.90
18506;DHT22;9382;53.242;10.438;2022-08-05T08:01:03;18.60;99.90
18506;DHT22;9382;53.242;10.438;2022-08-05T08:03:30;18.50;99.90
18506;DHT22;9382;53.242;10.438;2022-08-05T08:05:57;18.40;99.90
18506;DHT22;9382;53.242;10.438;2022-08-05T08:08:23;18.30;99.90
18506;DHT22;9382;53.242;10.438;2022-08-05T08:10:50;18.30;99.90
18506;DHT22;9382;53.242;10.438;2022-08-05T08:13:21;18.20;99.90
18506;DHT22;9382;53.242;10.438;2022-08-05T08:15:48;18.20;99.90
18506;DHT22;9382;53.242;10.438;2022-08-05T08:18:14;18.10;99.90
18506;DHT22;9382;53.242;10.438;2022-08-05T08:20:42;18.00;99.90
18506;DHT22;9382;53.242;10.438;2022-08-05T08:23:08;17.90;99.90
18506;DHT22;9382;53.242;10.438;2022-08-05T08:25:35;17.90;99.90
18506;DHT22;9382;53.242;10.438;2022-08-05T08:28:02;17.90;99.90
18506;DHT22;9382;53.242;10.438;2022-08-05T08:30:31;17.80;99.90
18506;DHT22;9382;53.242;10.438;2022-08-05T08:32:57;17.80;99.90
18506;DHT22;9382;53.242;10.438;2022-08-05T08:35:24;17.90;99.90
18506;DHT22;9382;53.242;10.438;2022-08-05T08:37:51;17.90;99.90
18506;DHT22;9382;53.242;10.438;2022-08-05T08:40:18;17.90;99.90
18506;DHT22;9382;53.242;10.438;2022-08-05T08:42:48;17.90;99.90
18506;DHT22;9382;53.242;10.438;2022-08-05T08:45:16;17.90;99.90
18506;DHT22;9382;53.242;10.438;2022-08-05T08:47:49;18.00;99.90
18506;DHT22;9382;53.242;10.438;2022-08-05T08:50:16;18.00;99.90
18506;DHT22;9382;53.242;10.438;2022-08-05T08:52:49;18.10;99.90
18506;DHT22;9382;53.242;10.438;2022-08-05T08:55:16;18.10;99.90
18506;DHT22;9382;53.242;10.438;2022-08-05T08:57:44;18.20;99.90
18506;DHT22;9382;53.242;10.438;2022-08-05T09:00:12;18.30;99.90
18506;DHT22;9382;53.242;10.438;2022-08-05T09:02:39;18.30;99.90
18506;DHT22;9382;53.242;10.438;2022-08-05T09:05:10;18.40;99.90
18506;DHT22;9382;53.242;10.438;2022-08-05T09:07:37;18.50;99.90
18506;DHT22;9382;53.242;10.438;2022-08-05T09:10:04;18.50;99.90
18506;DHT22;9382;53.242;10.438;2022-08-05T09:12:31;18.60;99.90
18506;DHT22;9382;53.242;10.438;2022-08-05T09:15:00;18.70;99.90
18506;DHT22;9382;53.242;10.438;2022-08-05T09:17:27;18.80;99.90
18506;DHT22;9382;53.242;10.438;2022-08-05T09:19:55;18.80;99.90
18506;DHT22;9382;53.242;10.438;2022-08-05T09:22:23;18.90;99.90
18506;DHT22;9382;53.242;10.438;2022-08-05T09:24:57;19.00;99.90
18506;DHT22;9382;53.242;10.438;2022-08-05T09:27:32;19.10;99.90
18506;DHT22;9382;53.242;10.438;2022-08-05T09:30:00;19.10;99.90
18506;DHT22;9382;53.242;10.438;2022-08-05T09:32:34;19.20;99.90
18506;DHT22;9382;53.242;10.438;2022-08-05T09:35:09;19.20;99.90
18506;DHT22;9382;53.242;10.438;2022-08-05T09:37:48;19.30;99.90
18506;DHT22;9382;53.242;10.438;2022-08-05T09:40:29;19.30;99.90
18506;DHT22;9382;53.242;10.438;2022-08-05T09:42:56;19.20;99.90
18506;DHT22;9382;53.242;10.438;2022-08-05T09:45:34;19.20;99.90
18506;DHT22;9382;53.242;10.438;2022-08-05T09:48:17;19.20;99.90
18506;DHT22;9382;53.242;10.438;2022-08-05T09:50:48;19.30;99.90
18506;DHT22;9382;53.242;10.438;2022-08-05T09:53:17;19.30;99.90
18506;DHT22;9382;53.242;10.438;2022-08-05T09:55:44;19.20;99.90
18506;DHT22;9382;53.242;10.438;2022-08-05T09:58:12;19.20;99.90
18506;DHT22;9382;53.242;10.438;2022-08-05T10:00:54;19.30;99.90
18506;DHT22;9382;53.242;10.438;2022-08-05T10:03:21;19.30;99.90
18506;DHT22;9382;53.242;10.438;2022-08-05T10:06:00;19.30;99.90
18506;DHT22;9382;53.242;10.438;2022-08-05T10:08:29;19.30;99.90
18506;DHT22;9382;53.242;10.438;2022-08-05T10:10:56;19.40;99.90
18506;DHT22;9382;53.242;10.438;2022-08-05T10:13:31;19.40;99.90
18506;DHT22;9382;53.242;10.438;2022-08-05T10:16:00;19.40;99.90
18506;DHT22;9382;53.242;10.438;2022-08-05T10:18:27;19.40;99.90
18506;DHT22;9382;53.242;10.438;2022-08-05T10:21:00;19.30;99.90
18506;DHT22;9382;53.242;10.438;2022-08-05T10:23:29;19.30;99.90
18506;DHT22;9382;53.242;10.438;2022-08-05T10:25:58;19.20;99.90
18506;DHT22;9382;53.242;10.438;2022-08-05T10:28:25;19.10;99.90
18506;DHT22;9382;53.242;10.438;2022-08-05T10:30:52;19.10;99.90
18506;DHT22;9382;53.242;10.438;2022-08-05T10:33:21;19.00;99.90
18506;DHT22;9382;53.242;10.438;2022-08-05T10:35:49;19.00;99.90
18506;DHT22;9382;53.242;10.438;2022-08-05T10:38:18;18.90;99.90
18506;DHT22;9382;53.242;10.438;2022-08-05T10:40:55;18.80;99.90
18506;DHT22;9382;53.242;10.438;2022-08-05T10:43:32;18.80;99.90
18506;DHT22;9382;53.242;10.438;2022-08-05T10:46:01;18.60;99.90
18506;DHT22;9382;53.242;10.438;2022-08-05T10:48:35;18.60;99.90
18506;DHT22;9382;53.242;10.438;2022-08-05T10:51:06;18.50;99.90
18506;DHT22;9382;53.242;10.438;2022-08-05T10:53:39;18.40;99.90
18506;DHT22;9382;53.242;10.438;2022-08-05T10:56:10;18.50;99.90
18506;DHT22;9382;53.242;10.438;2022-08-05T10:58:48;18.50;99.90
18506;DHT22;9382;53.242;10.438;2022-08-05T11:01:15;18.60;99.90
18506;DHT22;9382;53.242;10.438;2022-08-05T11:04:03;18.70;99.90
18506;DHT22;9382;53.242;10.438;2022-08-05T11:06:31;18.80;99.90
18506;DHT22;9382;53.242;10.438;2022-08-05T11:09:12;18.80;99.90
18506;DHT22;9382;53.242;10.438;2022-08-05T11:11:44;18.90;99.90
18506;DHT22;9382;53.242;10.438;2022-08-05T11:14:11;18.90;99.90
18506;DHT22;9382;53.242;10.438;2022-08-05T11:16:38;18.90;99.90
18506;DHT22;9382;53.242;10.438;2022-08-05T11:19:25;18.90;99.90
18506;DHT22;9382;53.242;10.438;2022-08-05T11:21:53;18.90;99.90
18506;DHT22;9382;53.242;10.438;2022-08-05T11:24:20;18.90;99.90
18506;DHT22;9382;53.242;10.438;2022-08-05T11:26:50;18.90;99.90
18506;DHT22;9382;53.242;10.438;2022-08-05T11:29:39;19.00;99.90
18506;DHT22;9382;53.242;10.438;2022-08-05T11:32:25;19.00;99.90
18506;DHT22;9382;53.242;10.438;2022-08-05T11:34:53;18.90;99.90
18506;DHT22;9382;53.242;10.438;2022-08-05T11:37:57;18.90;99.90
18506;DHT22;9382;53.242;10.438;2022-08-05T11:40:56;18.80;99.90
18506;DHT22;9382;53.242;10.438;2022-08-05T11:43:24;18.70;99.90
18506;DHT22;9382;53.242;10.438;2022-08-05T11:45:52;18.60;99.90
18506;DHT22;9382;53.242;10.438;2022-08-05T11:48:20;18.40;99.90
18506;DHT22;9382;53.242;10.438;2022-08-05T11:50:47;18.30;99.90
18506;DHT22;9382;53.242;10.438;2022-08-05T11:53:14;18.20;99.90
18506;DHT22;9382;53.242;10.438;2022-08-05T11:55:52;18.10;99.90
18506;DHT22;9382;53.242;10.438;2022-08-05T11:58:28;18.10;99.90
18506;DHT22;9382;53.242;10.438;2022-08-05T12:01:05;18.00;99.90
18506;DHT22;9382;53.242;10.438;2022-08-05T12:03:41;18.00;99.90
18506;DHT22;9382;53.242;10.438;2022-08-05T12:06:08;18.00;99.90
18506;DHT22;9382;53.242;10.438;2022-08-05T12:08:43;18.00;99.90
18506;DHT22;9382;53.242;10.438;2022-08-05T12:11:10;18.00;99.90
18506;DHT22;9382;53.242;10.438;2022-08-05T12:13:52;17.80;99.90
18506;DHT22;9382;53.242;10.438;2022-08-05T12:16:21;17.80;99.90
18506;DHT22;9382;53.242;10.438;2022-08-05T12:18:48;17.80;99.90
18506;DHT22;9382;53.242;10.438;2022-08-05T12:21:17;17.80;99.90
18506;DHT22;9382;53.242;10.438;2022-08-05T12:23:51;17.80;99.90
18506;DHT22;9382;53.242;10.438;2022-08-05T12:26:18;17.80;99.90
18506;DHT22;9382;53.242;10.438;2022-08-05T12:28:44;17.80;99.90
18506;DHT22;9382;53.242;10.438;2022-08-05T12:31:12;17.90;99.90
18506;DHT22;9382;53.242;10.438;2022-08-05T12:33:40;18.00;99.90
18506;DHT22;9382;53.242;10.438;2022-08-05T12:36:08;18.10;99.90
18506;DHT22;9382;53.242;10.438;2022-08-05T12:38:36;18.30;99.90
18506;DHT22;9382;53.242;10.438;2022-08-05T12:41:06;18.40;99.90
18506;DHT22;9382;53.242;10.438;2022-08-05T12:43:33;18.70;99.90
18506;DHT22;9382;53.242;10.438;2022-08-05T12:46:00;19.00;99.90
18506;DHT22;9382;53.242;10.438;2022-08-05T12:48:37;19.10;99.90
18506;DHT22;9382;53.242;10.438;2022-08-05T12:51:13;19.00;99.90
18506;DHT22;9382;53.242;10.438;2022-08-05T12:53:43;19.00;99.90
18506;DHT22;9382;53.242;10.438;2022-08-05T12:56:17;19.00;99.90
18506;DHT22;9382;53.242;10.438;2022-08-05T12:58:44;19.00;99.90
18506;DHT22;9382;53.242;10.438;2022-08-05T13:01:13;19.00;99.90
18506;DHT22;9382;53.242;10.438;2022-08-05T13:03:40;18.80;99.90
18506;DHT22;9382;53.242;10.438;2022-08-05T13:06:12;18.70;99.90
18506;DHT22;9382;53.242;10.438;2022-08-05T13:08:39;18.70;99.90
18506;DHT22;9382;53.242;10.438;2022-08-05T13:11:06;18.60;99.90
18506;DHT22;9382;53.242;10.438;2022-08-05T13:13:37;18.40;99.90
18506;DHT22;9382;53.242;10.438;2022-08-05T13:16:11;18.20;99.90
18506;DHT22;9382;53.242;10.438;2022-08-05T13:18:38;18.30;99.90
18506;DHT22;9382;53.242;10.438;2022-08-05T13:21:06;18.30;99.90
18506;DHT22;9382;53.242;10.438;2022-08-05T13:23:35;18.30;99.90
18506;DHT22;9382;53.242;10.438;2022-08-05T13:26:02;18.40;99.90
18506;DHT22;9382;53.242;10.438;2022-08-05T13:28:30;18.50;99.90
18506;DHT22;9382;53.242;10.438;2022-08-05T13:30:56;18.60;99.90
18506;DHT22;9382;53.242;10.438;2022-08-05T13:33:23;18.70;99.90
18506;DHT22;9382;53.242;10.438;2022-08-05T13:35:50;18.70;99.90
18506;DHT22;9382;53.242;10.438;2022-08-05T13:38:17;18.80;99.90
18506;DHT22;9382;53.242;10.438;2022-08-05T13:40:46;18.80;99.90
18506;DHT22;9382;53.242;10.438;2022-08-05T13:43:12;18.90;99.90
18506;DHT22;9382;53.242;10.438;2022-08-05T13:45:39;19.00;99.90
18506;DHT22;9382;53.242;10.438;2022-08-05T13:48:06;19.20;99.90
18506;DHT22;9382;53.242;10.438;2022-08-05T13:50:33;19.10;99.90
18506;DHT22;9382;53.242;10.438;2022-08-05T13:52:59;19.30;99.90
18506;DHT22;9382;53.242;10.438;2022-08-05T13:55:26;19.40;99.90
18506;DHT22;9382;53.242;10.438;2022-08-05T13:57:54;19.70;99.90
18506;DHT22;9382;53.242;10.438;2022-08-05T14:00:21;20.00;99.90
18506;DHT22;9382;53.242;10.438;2022-08-05T14:02:48;21.40;99.90
18506;DHT22;9382;53.242;10.438;2022-08-05T14:05:14;22.00;99.90
18506;DHT22;9382;53.242;10.438;2022-08-05T14:07:42;22.00;99.90
18506;DHT22;9382;53.242;10.438;2022-08-05T14:10:12;21.80;99.90
18506;DHT22;9382;53.242;10.438;2022-08-05T14:12:39;21.50;99.90
18506;DHT22;9382;53.242;10.438;2022-08-05T14:15:09;21.20;99.90
18506;DHT22;9382;53.242;10.438;2022-08-05T14:17:36;21.00;99.90
18506;DHT22;9382;53.242;10.438;2022-08-05T14:20:03;20.60;99.90
18506;DHT22;9382;53.242;10.438;2022-08-05T14:22:30;20.50;99.90
18506;DHT22;9382;53.242;10.438;2022-08-05T14:24:57;20.60;99.90
18506;DHT22;9382;53.242;10.438;2022-08-05T14:27:24;20.80;99.90
18506;DHT22;9382;53.242;10.438;2022-08-05T14:29:50;20.80;99.90
18506;DHT22;9382;53.242;10.438;2022-08-05T14:32:19;20.70;99.90
18506;DHT22;9382;53.242;10.438;2022-08-05T14:34:45;21.00;99.90
18506;DHT22;9382;53.242;10.438;2022-08-05T14:37:12;21.30;99.90
18506;DHT22;9382;53.242;10.438;2022-08-05T14:39:39;22.20;99.90
18506;DHT22;9382;53.242;10.438;2022-08-05T14:42:06;24.10;99.90
18506;DHT22;9382;53.242;10.438;2022-08-05T14:44:33;24.50;99.90
18506;DHT22;9382;53.242;10.438;2022-08-05T14:47:00;24.20;99.90
18506;DHT22;9382;53.242;10.438;2022-08-05T14:49:28;23.20;99.90
18506;DHT22;9382;53.242;10.438;2022-08-05T14:51:55;22.50;99.90
18506;DHT22;9382;53.242;10.438;2022-08-05T14:54:21;21.90;99.90
18506;DHT22;9382;53.242;10.438;2022-08-05T14:56:48;21.40;99.90
18506;DHT22;9382;53.242;10.438;2022-08-05T14:59:15;20.90;99.90
18506;DHT22;9382;53.242;10.438;2022-08-05T15:01:42;20.70;99.90
18506;DHT22;9382;53.242;10.438;2022-08-05T15:04:09;20.60;99.90
18506;DHT22;9382;53.242;10.438;2022-08-05T15:06:38;20.60;99.90
18506;DHT22;9382;53.242;10.438;2022-08-05T15:09:05;20.60;99.90
18506;DHT22;9382;53.242;10.438;2022-08-05T15:11:32;20.60;99.90
18506;DHT22;9382;53.242;10.438;2022-08-05T15:14:00;20.70;99.90
18506;DHT22;9382;53.242;10.438;2022-08-05T15:16:26;20.80;99.90
18506;DHT22;9382;53.242;10.438;2022-08-05T15:18:53;20.90;99.90
18506;DHT22;9382;53.242;10.438;2022-08-05T15:21:20;21.00;99.90
18506;DHT22;9382;53.242;10.438;2022-08-05T15:23:48;21.10;99.90
18506;DHT22;9382;53.242;10.438;2022-08-05T15:26:15;21.50;99.90
18506;DHT22;9382;53.242;10.438;2022-08-05T15:28:42;22.10;99.90
18506;DHT22;9382;53.242;10.438;2022-08-05T15:31:09;22.30;99.90
18506;DHT22;9382;53.242;10.438;2022-08-05T15:33:36;22.50;99.90
18506;DHT22;9382;53.242;10.438;2022-08-05T15:36:04;22.70;99.90
18506;DHT22;9382;53.242;10.438;2022-08-05T15:38:32;23.20;99.90
18506;DHT22;9382;53.242;10.438;2022-08-05T15:41:00;24.00;99.90